Time;durP1;ratioP1;P1;durP2;ratioP2;P2;SDS_P1;SDS_P2;PMS_P1;PMS_P2;Temp;Humidity;BMP_temperature;BMP_pressure;BME280_temperature;BME280_humidity;BME280_pressure;Samples;Min_cycle;Max_cycle;Signal;HPM_P1;HPM_P2
2023/07/02 00:00:44;;;;;;;;;;;;;;;19.24;58.14;98274.63;5067978;28;1910;-78
2023/07/02 00:03:12;;;;;;;;;;;;;;;19.23;58.20;98273.00;5064535;28;1149;-74
2023/07/02 00:05:39;;;;;;;;;;;;;;;19.22;57.94;98266.75;5068342;28;950;-78
2023/07/02 00:08:05;;;;;;;;;;;;;;;19.21;58.08;98261.66;5043788;28;1213;-77
2023/07/02 00:10:32;;;;;;;;;;;;;;;19.21;57.95;98251.53;5064788;28;1097;-76
2023/07/02 00:12:58;;;;;;;;;;;;;;;19.20;58.18;98257.31;5070908;28;1133;-77
2023/07/02 00:15:25;;;;;;;;;;;;;;;19.19;57.86;98253.78;5060315;28;1055;-77
2023/07/02 00:17:51;;;;;;;;;;;;;;;19.20;57.94;98258.09;5066216;28;1440;-76
2023/07/02 00:20:19;;;;;;;;;;;;;;;19.19;58.05;98244.81;5065182;28;1926;-76
2023/07/02 00:22:46;;;;;;;;;;;;;;;19.18;58.16;98241.28;5067692;28;1006;-73
2023/07/02 00:25:12;;;;;;;;;;;;;;;19.19;57.80;98248.34;5066085;28;991;-74
2023/07/02 00:27:40;;;;;;;;;;;;;;;19.19;57.86;98233.91;5069641;28;1298;-74
2023/07/02 00:30:06;;;;;;;;;;;;;;;19.18;57.75;98232.31;5066477;28;993;-76
2023/07/02 00:32:34;;;;;;;;;;;;;;;19.17;57.78;98236.16;5066647;28;965;-76
2023/07/02 00:35:00;;;;;;;;;;;;;;;19.16;57.94;98234.56;5071214;28;985;-76
2023/07/02 00:37:27;;;;;;;;;;;;;;;19.16;57.80;98220.91;5065428;28;1015;-75
2023/07/02 00:39:53;;;;;;;;;;;;;;;19.15;58.09;98217.41;5061464;28;1909;-75
2023/07/02 00:42:21;;;;;;;;;;;;;;;19.14;57.79;98225.91;5068382;28;1070;-76
2023/07/02 00:44:47;;;;;;;;;;;;;;;19.14;57.69;98217.72;5068152;28;993;-76
2023/07/02 00:47:16;;;;;;;;;;;;;;;19.12;57.85;98212.59;5068081;28;1021;-76
2023/07/02 00:49:42;;;;;;;;;;;;;;;19.12;57.96;98204.44;5066370;28;995;-74
2023/07/02 00:52:10;;;;;;;;;;;;;;;19.13;57.68;98199.75;5070838;28;975;-77
2023/07/02 00:54:36;;;;;;;;;;;;;;;19.12;57.90;98198.97;5067194;28;1065;-75
2023/07/02 00:57:03;;;;;;;;;;;;;;;19.11;57.99;98199.28;5052041;28;1097;-78
2023/07/02 00:59:29;;;;;;;;;;;;;;;19.10;57.84;98193.03;5062856;28;1914;-75
2023/07/02 01:01:56;;;;;;;;;;;;;;;19.10;57.82;98189.53;5071531;28;954;-76
2023/07/02 01:04:27;;;;;;;;;;;;;;;19.09;57.75;98182.44;5053487;28;935;-75
2023/07/02 01:06:57;;;;;;;;;;;;;;;19.08;57.79;98178.94;5052400;28;1432;-77
2023/07/02 01:09:25;;;;;;;;;;;;;;;19.08;58.00;98181.66;5051946;28;1185;-77
2023/07/02 01:11:52;;;;;;;;;;;;;;;19.09;57.61;98171.53;5052347;28;954;-75
2023/07/02 01:14:18;;;;;;;;;;;;;;;19.06;57.80;98187.47;5052963;28;1383;-75
2023/07/02 01:16:45;;;;;;;;;;;;;;;19.06;57.80;98187.47;5072375;28;1073;-77
2023/07/02 01:19:12;;;;;;;;;;;;;;;19.09;57.73;98179.72;5052552;28;1910;-78
2023/07/02 01:21:38;;;;;;;;;;;;;;;19.08;57.51;98169.94;5072332;28;957;-77
2023/07/02 01:24:05;;;;;;;;;;;;;;;19.08;57.58;98172.69;5072001;28;1045;-76
2023/07/02 01:26:33;;;;;;;;;;;;;;;19.08;57.88;98168.00;5067782;28;1401;-78
2023/07/02 01:29:00;;;;;;;;;;;;;;;19.15;57.43;98157.38;5042393;28;1231;-75
2023/07/02 01:31:26;;;;;;;;;;;;;;;19.23;56.87;98155.69;5057247;28;1070;-75
2023/07/02 01:33:53;;;;;;;;;;;;;;;19.23;57.20;98155.69;5059207;28;1352;-78
2023/07/02 01:36:19;;;;;;;;;;;;;;;19.16;57.45;98150.00;5046506;28;1674;-75
2023/07/02 01:38:46;;;;;;;;;;;;;;;19.13;57.14;98140.53;5061598;28;1303;-74
2023/07/02 01:41:13;;;;;;;;;;;;;;;19.08;57.28;98138.00;5064723;28;1914;-77
2023/07/02 01:43:39;;;;;;;;;;;;;;;19.14;57.42;98133.94;5063792;28;1223;-78
2023/07/02 01:46:06;;;;;;;;;;;;;;;19.21;57.01;98130.69;5071709;28;1077;-79
2023/07/02 01:48:32;;;;;;;;;;;;;;;19.34;56.43;98132.31;5063047;28;1198;-76
2023/07/02 01:50:59;;;;;;;;;;;;;;;19.34;56.51;98124.13;5052882;28;1295;-76
2023/07/02 01:53:25;;;;;;;;;;;;;;;19.18;57.13;98120.44;5053348;28;1220;-77
2023/07/02 01:55:52;;;;;;;;;;;;;;;19.34;56.51;98121.41;5070888;28;987;-77
2023/07/02 01:58:18;;;;;;;;;;;;;;;19.49;55.76;98118.03;5065650;28;982;-75
2023/07/02 02:00:45;;;;;;;;;;;;;;;19.38;56.19;98111.41;5069749;28;1926;-76
2023/07/02 02:03:11;;;;;;;;;;;;;;;19.39;56.17;98113.00;5066049;28;1353;-78
2023/07/02 02:05:38;;;;;;;;;;;;;;;19.32;56.16;98103.75;5067490;28;949;-76
2023/07/02 02:08:04;;;;;;;;;;;;;;;19.20;56.80;98107.25;5051940;28;1193;-76
2023/07/02 02:10:31;;;;;;;;;;;;;;;19.43;55.95;98094.81;5065523;28;1191;-78
2023/07/02 02:12:58;;;;;;;;;;;;;;;19.55;55.97;98093.25;5066410;28;1498;-76
2023/07/02 02:15:24;;;;;;;;;;;;;;;19.42;56.04;98087.78;5047805;28;1334;-77
2023/07/02 02:17:51;;;;;;;;;;;;;;;19.59;55.50;98084.06;5073308;28;1081;-78
2023/07/02 02:20:17;;;;;;;;;;;;;;;19.66;55.49;98089.78;5069844;28;1971;-75
2023/07/02 02:22:44;;;;;;;;;;;;;;;19.65;55.05;98084.66;5070113;28;895;-77
2023/07/02 02:25:10;;;;;;;;;;;;;;;19.71;55.15;98080.56;5069712;28;1354;-76
2023/07/02 02:27:37;;;;;;;;;;;;;;;19.83;54.55;98080.59;5068805;28;1312;-76
2023/07/02 02:30:03;;;;;;;;;;;;;;;19.83;54.28;98074.31;5072092;28;1229;-76
2023/07/02 02:32:30;;;;;;;;;;;;;;;19.84;54.39;98067.72;5072010;28;1026;-79
2023/07/02 02:34:56;;;;;;;;;;;;;;;19.84;54.73;98081.38;5072097;28;1269;-75
2023/07/02 02:37:23;;;;;;;;;;;;;;;19.73;54.64;98075.56;5050557;28;1289;-75
2023/07/02 02:39:50;;;;;;;;;;;;;;;19.74;54.64;98074.44;5067933;28;1894;-77
2023/07/02 02:42:16;;;;;;;;;;;;;;;19.66;54.92;98069.88;5066081;28;1022;-74
2023/07/02 02:44:43;;;;;;;;;;;;;;;19.73;54.39;98067.38;5068757;28;1090;-75
2023/07/02 02:47:09;;;;;;;;;;;;;;;19.65;54.73;98062.81;5069865;28;1046;-76
2023/07/02 02:49:36;;;;;;;;;;;;;;;19.53;55.27;98060.84;5069746;28;1001;-77
2023/07/02 02:52:02;;;;;;;;;;;;;;;19.94;53.95;98069.97;5070931;28;914;-75
2023/07/02 02:54:29;;;;;;;;;;;;;;;19.76;54.28;98063.94;5065978;28;1057;-75
2023/07/02 02:56:55;;;;;;;;;;;;;;;19.69;54.53;98063.72;5067569;28;1025;-76
2023/07/02 02:59:22;;;;;;;;;;;;;;;19.65;54.83;98051.91;5071045;28;1910;-76
2023/07/02 03:01:48;;;;;;;;;;;;;;;19.64;54.61;98048.31;5064300;28;1386;-76
2023/07/02 03:04:15;;;;;;;;;;;;;;;19.86;54.34;98057.25;5066199;28;1023;-77
2023/07/02 03:06:42;;;;;;;;;;;;;;;19.78;54.13;98045.31;5063071;28;1046;-75
2023/07/02 03:09:08;;;;;;;;;;;;;;;19.78;54.49;98042.56;5061069;28;1167;-78
2023/07/02 03:11:35;;;;;;;;;;;;;;;19.60;54.47;98041.97;5063078;28;1321;-76
2023/07/02 03:14:01;;;;;;;;;;;;;;;19.85;53.86;98047.44;5065069;28;1035;-77
2023/07/02 03:16:28;;;;;;;;;;;;;;;19.76;54.45;98041.31;5065787;28;1010;-76
2023/07/02 03:18:54;;;;;;;;;;;;;;;19.79;54.23;98035.97;5067833;28;968;-77
2023/07/02 03:21:21;;;;;;;;;;;;;;;19.70;54.46;98036.06;5070685;28;2039;-73
2023/07/02 03:23:47;;;;;;;;;;;;;;;19.71;54.18;98034.94;5068547;28;1023;-74
2023/07/02 03:26:14;;;;;;;;;;;;;;;19.78;54.32;98026.19;5066463;28;1093;-74
2023/07/02 03:28:41;;;;;;;;;;;;;;;19.79;53.89;98030.50;5066786;28;1381;-75
2023/07/02 03:31:07;;;;;;;;;;;;;;;19.72;54.44;98024.81;5069309;28;1022;-73
2023/07/02 03:33:34;;;;;;;;;;;;;;;19.71;53.99;98025.97;5063187;28;1224;-77
2023/07/02 03:36:00;;;;;;;;;;;;;;;19.82;53.78;98013.44;5065345;28;955;-74
2023/07/02 03:38:27;;;;;;;;;;;;;;;19.77;54.07;98018.34;5073289;28;1217;-77
2023/07/02 03:40:53;;;;;;;;;;;;;;;19.72;54.29;98011.97;5055158;28;1918;-75
2023/07/02 03:43:21;;;;;;;;;;;;;;;19.75;53.82;98018.69;5052999;28;1165;-75
2023/07/02 03:45:47;;;;;;;;;;;;;;;19.82;54.01;98009.91;5063109;28;1054;-77
2023/07/02 03:48:14;;;;;;;;;;;;;;;19.81;53.80;98006.38;5069856;28;1001;-78
2023/07/02 03:50:40;;;;;;;;;;;;;;;19.73;53.96;98005.34;5054382;28;1202;-76
2023/07/02 03:53:07;;;;;;;;;;;;;;;19.69;54.06;98006.41;5073727;28;943;-77
2023/07/02 03:55:34;;;;;;;;;;;;;;;19.72;54.16;98005.72;5073018;28;910;-76
2023/07/02 03:58:00;;;;;;;;;;;;;;;19.70;53.79;97997.84;5067965;28;1066;-77
2023/07/02 04:00:27;;;;;;;;;;;;;;;19.83;53.85;97997.88;5064573;28;1973;-77
2023/07/02 04:02:53;;;;;;;;;;;;;;;19.58;54.35;97997.03;5053484;28;1605;-75
2023/07/02 04:05:20;;;;;;;;;;;;;;;19.74;54.18;97985.13;5065771;28;1045;-77
2023/07/02 04:07:47;;;;;;;;;;;;;;;19.66;54.25;97988.75;5070388;28;1056;-75
2023/07/02 04:10:13;;;;;;;;;;;;;;;19.66;53.99;97986.03;5068013;28;998;-78
2023/07/02 04:12:40;;;;;;;;;;;;;;;19.60;54.46;97981.91;5073583;28;1097;-75
2023/07/02 04:15:32;;;;;;;;;;;;;;;19.74;53.71;97985.13;5069075;28;961;-79
2023/07/02 04:18:23;;;;;;;;;;;;;;;19.79;53.83;97992.25;5074273;28;990;-78
2023/07/02 04:21:14;;;;;;;;;;;;;;;19.83;53.76;97981.47;5073929;28;1902;-78
2023/07/02 04:24:01;;;;;;;;;;;;;;;19.80;53.53;97982.16;5073925;28;987;-78
2023/07/02 04:26:52;;;;;;;;;;;;;;;19.65;53.78;97973.53;5074207;28;1363;-76
2023/07/02 04:29:44;;;;;;;;;;;;;;;19.70;53.67;97976.00;5069487;28;1171;-74
2023/07/02 04:32:35;;;;;;;;;;;;;;;19.74;53.80;97976.13;5073683;28;1339;-80
2023/07/02 04:35:27;;;;;;;;;;;;;;;19.71;53.53;97974.88;5074109;28;1189;-77
2023/07/02 04:38:19;;;;;;;;;;;;;;;19.69;53.92;97966.22;5072034;28;1062;-74
2023/07/02 04:41:11;;;;;;;;;;;;;;;19.68;53.99;97969.31;5072994;28;1955;-78
2023/07/02 04:44:04;;;;;;;;;;;;;;;19.61;53.78;97963.59;5073040;28;1375;-76
2023/07/02 04:46:56;;;;;;;;;;;;;;;19.48;54.23;97973.72;5073564;28;1165;-73
2023/07/02 04:49:47;;;;;;;;;;;;;;;19.60;53.98;97962.78;5072195;28;1220;-76
2023/07/02 04:52:39;;;;;;;;;;;;;;;19.45;54.16;97968.94;5110099;22;1628;-78
2023/07/02 04:55:31;;;;;;;;;;;;;;;19.57;53.78;97962.69;5052021;28;931;-76
2023/07/02 04:58:23;;;;;;;;;;;;;;;19.64;53.79;97960.16;5053697;28;1078;-76
2023/07/02 05:01:15;;;;;;;;;;;;;;;19.58;53.96;97954.13;5053489;28;1951;-77
2023/07/02 05:04:06;;;;;;;;;;;;;;;19.54;53.80;97952.44;5053610;28;1121;-78
2023/07/02 05:06:58;;;;;;;;;;;;;;;19.71;53.65;97952.25;5050144;28;1080;-76
2023/07/02 05:09:51;;;;;;;;;;;;;;;19.62;53.76;97951.53;5053624;28;1015;-76
2023/07/02 05:12:43;;;;;;;;;;;;;;;19.52;54.13;97955.50;5053479;28;1193;-76
2023/07/02 05:15:35;;;;;;;;;;;;;;;19.21;54.93;97947.91;5053598;28;1341;-76
2023/07/02 05:18:27;;;;;;;;;;;;;;;19.42;54.06;97943.13;5053603;28;1035;-77
2023/07/02 05:21:20;;;;;;;;;;;;;;;19.36;54.52;97938.25;5053526;28;1902;-77
2023/07/02 05:24:11;;;;;;;;;;;;;;;19.48;54.24;97947.22;5053321;28;1177;-77
2023/07/02 05:27:03;;;;;;;;;;;;;;;19.52;54.06;97952.78;5053054;28;967;-75
2023/07/02 05:29:55;;;;;;;;;;;;;;;19.42;54.12;97945.84;5053191;28;1383;-78
2023/07/02 05:32:48;;;;;;;;;;;;;;;19.45;53.77;97942.44;5053408;28;939;-75
2023/07/02 05:35:39;;;;;;;;;;;;;;;19.52;53.87;97947.31;5053018;28;1244;-76
2023/07/02 05:38:31;;;;;;;;;;;;;;;19.38;54.06;97947.66;5052869;28;1125;-76
2023/07/02 05:41:24;;;;;;;;;;;;;;;19.45;54.06;97945.16;5053507;28;1981;-77
2023/07/02 05:44:16;;;;;;;;;;;;;;;19.17;55.04;97946.97;5052136;28;1138;-75
2023/07/02 05:47:08;;;;;;;;;;;;;;;19.23;54.60;97949.13;5053433;28;1208;-78
2023/07/02 05:50:00;;;;;;;;;;;;;;;19.28;54.26;97934.47;5051535;28;971;-77
2023/07/02 05:52:52;;;;;;;;;;;;;;;19.29;54.18;97938.78;5170042;22;1679;-76
2023/07/02 05:55:48;;;;;;;;;;;;;;;18.99;55.33;97938.97;5106316;22;1708;-76
2023/07/02 05:58:39;;;;;;;;;;;;;;;19.16;54.74;97943.44;5121190;27;944;-77
2023/07/02 06:01:30;;;;;;;;;;;;;;;19.20;54.60;97938.09;5108627;28;1906;-77
2023/07/02 06:04:22;;;;;;;;;;;;;;;19.12;54.80;97931.63;5110562;28;1005;-76
2023/07/02 06:07:14;;;;;;;;;;;;;;;19.29;54.49;97923.22;5114801;28;1325;-78
2023/07/02 06:10:05;;;;;;;;;;;;;;;19.05;55.22;97934.09;5103960;28;1036;-77
2023/07/02 06:12:57;;;;;;;;;;;;;;;19.19;54.65;97918.22;5111376;28;1286;-77
2023/07/02 06:15:49;;;;;;;;;;;;;;;18.99;55.03;97916.38;5112838;28;1099;-76
2023/07/02 06:18:42;;;;;;;;;;;;;;;19.09;54.69;97924.13;5110646;28;1494;-78
2023/07/02 06:21:33;;;;;;;;;;;;;;;19.18;54.66;97911.19;5106144;28;1977;-75
2023/07/02 06:24:25;;;;;;;;;;;;;;;18.92;55.20;97913.41;5111856;28;1176;-77
2023/07/02 06:27:17;;;;;;;;;;;;;;;18.84;55.46;97910.44;5107159;28;985;-78
2023/07/02 06:30:09;;;;;;;;;;;;;;;18.94;55.33;97916.59;5109593;28;965;-77
2023/07/02 06:33:01;;;;;;;;;;;;;;;18.89;55.48;97909.44;5110594;28;1354;-78
2023/07/02 06:35:53;;;;;;;;;;;;;;;18.87;55.74;97908.19;5115127;28;1299;-77
2023/07/02 06:38:45;;;;;;;;;;;;;;;18.98;55.06;97906.59;5111971;28;1172;-76
2023/07/02 06:41:37;;;;;;;;;;;;;;;18.78;55.85;97913.72;5114283;28;1886;-75
2023/07/02 06:44:29;;;;;;;;;;;;;;;18.82;55.60;97917.34;5111934;28;953;-77
2023/07/02 06:47:21;;;;;;;;;;;;;;;18.94;55.07;97919.31;5108705;28;970;-75
2023/07/02 06:53:03;;;;;;;;;;;;;;;18.79;55.66;97910.66;5095844;22;2208;-76
2023/07/02 06:55:54;;;;;;;;;;;;;;;18.78;55.53;97909.06;5091309;28;1054;-77
2023/07/02 06:58:46;;;;;;;;;;;;;;;18.65;56.02;97907.44;5087736;28;932;-76
2023/07/02 07:01:38;;;;;;;;;;;;;;;18.60;56.32;97905.69;5086954;28;1973;-76
2023/07/02 07:04:29;;;;;;;;;;;;;;;18.69;56.06;97902.09;5087619;28;1480;-76
2023/07/02 07:07:21;;;;;;;;;;;;;;;18.63;56.33;97903.44;5087025;28;1088;-77
2023/07/02 07:10:12;;;;;;;;;;;;;;;18.66;56.29;97905.50;5093756;28;1026;-76
2023/07/02 07:13:04;;;;;;;;;;;;;;;18.63;55.95;97898.00;5092962;28;1018;-77
2023/07/02 07:15:55;;;;;;;;;;;;;;;18.63;56.22;97898.78;5080260;28;1030;-78
2023/07/02 07:18:48;;;;;;;;;;;;;;;18.55;56.50;97892.28;5085431;28;992;-79
2023/07/02 07:21:40;;;;;;;;;;;;;;;18.52;56.62;97901.13;5091202;28;1898;-77
2023/07/02 07:24:31;;;;;;;;;;;;;;;18.55;56.59;97908.63;5091382;28;1037;-77
2023/07/02 07:27:23;;;;;;;;;;;;;;;18.57;56.70;97902.84;5089078;28;1250;-77
2023/07/02 07:30:22;;;;;;;;;;;;;;;18.62;56.58;97902.66;5093517;28;1249;-76
2023/07/02 07:33:13;;;;;;;;;;;;;;;18.72;56.24;97901.41;5082751;28;1070;-77
2023/07/02 07:36:05;;;;;;;;;;;;;;;18.69;55.93;97900.16;5092660;28;1220;-76
2023/07/02 07:38:58;;;;;;;;;;;;;;;18.57;56.52;97905.59;5086520;28;921;-77
2023/07/02 07:41:49;;;;;;;;;;;;;;;18.52;56.66;97903.84;5088689;28;1902;-76
2023/07/02 07:44:41;;;;;;;;;;;;;;;18.53;56.49;97910.91;5089569;28;1181;-77
2023/07/02 07:47:33;;;;;;;;;;;;;;;18.58;56.21;97915.34;5093822;22;1670;-75
2023/07/02 07:50:26;;;;;;;;;;;;;;;18.66;56.27;97905.50;5134757;22;3050;-77
2023/07/02 07:53:17;;;;;;;;;;;;;;;18.56;56.33;97904.78;5086592;28;1086;-77
2023/07/02 07:56:09;;;;;;;;;;;;;;;18.55;56.42;97908.63;5074207;28;1260;-79
2023/07/02 07:59:02;;;;;;;;;;;;;;;18.50;56.75;97903.41;5069995;28;1070;-76
2023/07/02 08:01:53;;;;;;;;;;;;;;;18.61;56.35;97904.56;5074406;28;1969;-77
2023/07/02 08:04:44;;;;;;;;;;;;;;;18.54;56.37;97904.31;5074312;28;1081;-77
2023/07/02 08:07:36;;;;;;;;;;;;;;;18.51;56.67;97904.19;5074718;28;983;-76
2023/07/02 08:10:28;;;;;;;;;;;;;;;18.50;56.92;97902.59;5074598;28;1070;-78
2023/07/02 08:13:20;;;;;;;;;;;;;;;18.50;56.80;97905.31;5074442;28;1104;-78
2023/07/02 08:16:13;;;;;;;;;;;;;;;18.51;56.78;97902.28;5074712;28;1109;-77
2023/07/02 08:19:05;;;;;;;;;;;;;;;18.52;56.56;97906.56;5074122;28;1022;-77
2023/07/02 08:21:56;;;;;;;;;;;;;;;18.52;56.66;97897.59;5074146;28;1965;-78
2023/07/02 08:24:49;;;;;;;;;;;;;;;18.52;56.74;97900.34;5067341;28;1019;-76
2023/07/02 08:27:40;;;;;;;;;;;;;;;18.52;56.80;97903.06;5060959;28;1260;-77
2023/07/02 08:30:32;;;;;;;;;;;;;;;18.55;56.53;97905.09;5073661;28;1074;-76
2023/07/02 08:33:24;;;;;;;;;;;;;;;18.56;56.47;97906.69;5073663;28;1287;-76
2023/07/02 08:36:16;;;;;;;;;;;;;;;18.55;56.46;97905.91;5073981;28;925;-77
2023/07/02 08:39:09;;;;;;;;;;;;;;;18.56;56.53;97909.41;5074076;28;930;-76
2023/07/02 08:42:00;;;;;;;;;;;;;;;18.54;56.65;97907.03;5073592;28;1906;-79
2023/07/02 08:44:52;;;;;;;;;;;;;;;18.54;56.61;97907.03;5073552;28;900;-79
2023/07/02 08:47:45;;;;;;;;;;;;;;;18.54;56.60;97906.25;5070702;28;955;-75
2023/07/02 08:50:37;;;;;;;;;;;;;;;18.55;56.69;97902.38;5092424;28;1349;-77
2023/07/02 08:53:33;;;;;;;;;;;;;;;18.54;56.70;97895.34;5093768;28;1371;-76
2023/07/02 08:56:26;;;;;;;;;;;;;;;18.54;56.75;97893.41;5093429;28;1213;-76
2023/07/02 08:59:18;;;;;;;;;;;;;;;18.53;56.62;97897.28;5093679;28;1056;-76
2023/07/02 09:02:09;;;;;;;;;;;;;;;18.55;56.87;97896.94;5093632;28;1902;-76
2023/07/02 09:05:01;;;;;;;;;;;;;;;18.55;56.72;97899.66;5093716;28;891;-77
2023/07/02 09:07:53;;;;;;;;;;;;;;;18.56;56.33;97902.06;5090573;28;1165;-75
2023/07/02 09:10:45;;;;;;;;;;;;;;;18.56;56.44;97906.69;5093609;28;1018;-76
2023/07/02 09:13:39;;;;;;;;;;;;;;;18.57;56.72;97897.41;5092658;28;1074;-77
2023/07/02 09:16:31;;;;;;;;;;;;;;;18.57;56.49;97900.13;5093437;28;1367;-76
2023/07/02 09:19:22;;;;;;;;;;;;;;;18.58;56.70;97912.63;5087227;28;870;-76
2023/07/02 09:22:15;;;;;;;;;;;;;;;18.58;56.71;97905.22;5090192;28;1959;-78
2023/07/02 09:25:08;;;;;;;;;;;;;;;18.58;56.63;97901.72;5093627;28;1036;-79
2023/07/02 09:27:59;;;;;;;;;;;;;;;18.58;56.48;97904.44;5092556;28;1119;-79
2023/07/02 09:30:51;;;;;;;;;;;;;;;18.58;56.75;97899.00;5097360;28;1220;-77
2023/07/02 09:33:43;;;;;;;;;;;;;;;18.58;56.67;97893.53;5097541;28;1025;-79
2023/07/02 09:36:37;;;;;;;;;;;;;;;18.58;56.64;97893.53;5094262;28;1181;-79
2023/07/02 09:39:29;;;;;;;;;;;;;;;18.57;56.38;97895.47;5096971;28;950;-79
2023/07/02 09:42:20;;;;;;;;;;;;;;;18.56;56.85;97898.53;5095538;28;1969;-78
2023/07/02 09:45:13;;;;;;;;;;;;;;;18.54;56.87;97904.31;5093307;28;951;-78
2023/07/02 09:48:04;;;;;;;;;;;;;;;18.54;56.49;97904.31;5092143;28;1058;-77
2023/07/02 09:50:56;;;;;;;;;;;;;;;18.54;56.75;97909.78;5051847;28;1090;-78
2023/07/02 09:53:47;;;;;;;;;;;;;;;18.52;56.73;97917.47;5050065;28;976;-78
2023/07/02 09:56:39;;;;;;;;;;;;;;;18.51;56.86;97920.56;5057052;28;1021;-77
2023/07/02 09:59:31;;;;;;;;;;;;;;;18.51;56.84;97915.91;5056748;28;1255;-78
2023/07/02 10:02:24;;;;;;;;;;;;;;;18.50;57.02;97917.03;5056982;28;1973;-78
2023/07/02 10:05:15;;;;;;;;;;;;;;;18.52;57.10;97924.88;5057325;28;1105;-77
2023/07/02 10:08:07;;;;;;;;;;;;;;;18.51;56.75;97932.25;5056973;28;1030;-76
2023/07/02 10:10:58;;;;;;;;;;;;;;;18.51;56.81;97926.78;5056908;28;1054;-76
2023/07/02 10:13:50;;;;;;;;;;;;;;;18.50;57.02;97930.66;5057035;28;919;-78
2023/07/02 10:16:43;;;;;;;;;;;;;;;18.50;57.07;97919.75;5050665;28;918;-78
2023/07/02 10:19:35;;;;;;;;;;;;;;;18.50;56.99;97924.38;5056533;28;1010;-77
2023/07/02 10:22:26;;;;;;;;;;;;;;;18.51;56.81;97917.84;5056836;28;1898;-77
2023/07/02 10:25:18;;;;;;;;;;;;;;;18.50;57.06;97924.38;5056808;28;882;-79
2023/07/02 10:28:10;;;;;;;;;;;;;;;18.50;57.15;97917.03;5056555;28;1128;-78
2023/07/02 10:31:02;;;;;;;;;;;;;;;18.50;56.85;97917.03;5052901;28;1125;-76
2023/07/02 10:33:54;;;;;;;;;;;;;;;18.50;56.94;97927.94;5056153;28;999;-76
2023/07/02 10:36:47;;;;;;;;;;;;;;;18.51;57.05;97934.19;5056889;28;923;-77
2023/07/02 10:39:38;;;;;;;;;;;;;;;18.52;57.10;97927.59;5053432;28;1208;-77
2023/07/02 10:42:29;;;;;;;;;;;;;;;18.52;57.03;97928.38;5071493;28;1938;-76
2023/07/02 10:45:22;;;;;;;;;;;;;;;18.52;56.77;97925.66;5076149;28;914;-78
2023/07/02 10:48:13;;;;;;;;;;;;;;;18.54;56.73;97934.31;5076128;28;967;-78
2023/07/02 10:51:06;;;;;;;;;;;;;;;18.56;56.72;97928.50;5096171;28;1145;-76
2023/07/02 10:53:58;;;;;;;;;;;;;;;18.53;56.88;97935.44;5095901;28;1224;-82
2023/07/02 10:56:49;;;;;;;;;;;;;;;18.52;56.75;97935.75;5094309;28;1328;-84
2023/07/02 10:59:41;;;;;;;;;;;;;;;18.51;56.75;97942.34;5092593;28;1456;-82
2023/07/02 11:02:32;;;;;;;;;;;;;;;18.51;56.91;97943.16;5096037;28;1902;-84
2023/07/02 11:05:25;;;;;;;;;;;;;;;18.49;57.09;97937.22;5095970;28;1212;-82
2023/07/02 11:08:17;;;;;;;;;;;;;;;18.48;57.03;97937.56;5092235;28;1086;-82
2023/07/02 11:11:09;;;;;;;;;;;;;;;18.47;56.88;97944.97;5089226;28;993;-80
2023/07/02 11:14:00;;;;;;;;;;;;;;;18.47;56.89;97952.31;5095454;28;922;-80
2023/07/02 11:16:53;;;;;;;;;;;;;;;18.46;57.03;97939.84;5095339;28;1323;-78
2023/07/02 11:19:44;;;;;;;;;;;;;;;18.45;57.07;97924.63;5095921;28;992;-79
2023/07/02 11:22:37;;;;;;;;;;;;;;;18.46;57.11;97924.28;5095496;28;1894;-77
2023/07/02 11:25:29;;;;;;;;;;;;;;;18.47;57.03;97935.97;5095697;28;1037;-77
2023/07/02 11:28:20;;;;;;;;;;;;;;;18.46;56.92;97943.34;5095342;28;1002;-79
2023/07/02 11:31:12;;;;;;;;;;;;;;;18.47;57.02;97942.25;5093482;28;1618;-78
2023/07/02 11:34:05;;;;;;;;;;;;;;;18.46;57.15;97928.94;5095518;28;1025;-80
2023/07/02 11:36:57;;;;;;;;;;;;;;;18.46;57.02;97935.16;5121445;22;3779;-79
2023/07/02 11:39:49;;;;;;;;;;;;;;;18.45;57.10;97932.81;5091012;28;1623;-78
2023/07/02 11:42:40;;;;;;;;;;;;;;;18.45;57.11;97935.53;5087030;28;1967;-77
2023/07/02 11:45:32;;;;;;;;;;;;;;;18.44;57.20;97951.06;5095159;28;1041;-76
2023/07/02 11:48:24;;;;;;;;;;;;;;;18.43;57.09;97930.41;5094130;28;906;-77
2023/07/02 11:51:17;;;;;;;;;;;;;;;18.42;57.14;97936.97;5093634;28;1294;-77
2023/07/02 11:54:08;;;;;;;;;;;;;;;18.44;56.91;97933.91;5089664;28;1125;-78
2023/07/02 11:57:00;;;;;;;;;;;;;;;18.44;57.04;97931.19;5090703;28;1089;-77
2023/07/02 11:59:53;;;;;;;;;;;;;;;18.43;57.26;97933.13;5086469;28;1682;-78
2023/07/02 12:02:44;;;;;;;;;;;;;;;18.46;56.83;97946.06;5083519;28;1902;-76
2023/07/02 12:05:36;;;;;;;;;;;;;;;18.48;56.75;97940.31;5094348;28;1207;-77
2023/07/02 12:08:28;;;;;;;;;;;;;;;18.49;56.50;97939.94;5083559;28;1080;-79
2023/07/02 12:11:20;;;;;;;;;;;;;;;18.50;56.81;97944.28;5088219;28;908;-77
2023/07/02 12:14:11;;;;;;;;;;;;;;;18.51;56.92;97931.47;5091739;28;1073;-77
2023/07/02 12:17:04;;;;;;;;;;;;;;;18.51;56.58;97940.41;5092276;28;987;-78
2023/07/02 12:19:55;;;;;;;;;;;;;;;18.52;56.57;97943.94;5087811;28;1101;-73
2023/07/02 12:22:48;;;;;;;;;;;;;;;18.54;56.76;97938.97;5093483;28;1909;-76
2023/07/02 12:25:39;;;;;;;;;;;;;;;18.53;56.57;97940.06;5081564;28;957;-75
2023/07/02 12:28:31;;;;;;;;;;;;;;;18.53;56.55;97930.00;5079804;28;1048;-77
2023/07/02 12:31:23;;;;;;;;;;;;;;;18.54;56.56;97942.47;5082100;28;1076;-78
2023/07/02 12:34:14;;;;;;;;;;;;;;;18.55;56.73;97941.34;5115952;23;1547;-77
2023/07/02 12:37:06;;;;;;;;;;;;;;;18.54;56.51;97939.75;5119123;28;1039;-78
2023/07/02 12:39:58;;;;;;;;;;;;;;;18.56;56.74;97934.78;5098106;28;1134;-77
2023/07/02 12:42:50;;;;;;;;;;;;;;;18.56;56.76;97945.66;5094138;28;1902;-77
2023/07/02 12:45:42;;;;;;;;;;;;;;;18.55;56.87;97946.78;5094805;28;1239;-75
2023/07/02 12:48:34;;;;;;;;;;;;;;;18.54;56.89;97958.81;5094293;28;898;-75
2023/07/02 12:51:26;;;;;;;;;;;;;;;18.53;56.83;97954.53;5094609;28;1039;-75
2023/07/02 12:54:18;;;;;;;;;;;;;;;18.54;56.68;97961.56;5094261;28;1030;-76
2023/07/02 12:57:10;;;;;;;;;;;;;;;18.54;56.68;97964.28;5094691;28;1227;-75
2023/07/02 13:00:02;;;;;;;;;;;;;;;18.57;56.60;97971.78;5087838;28;1044;-75
2023/07/02 13:02:54;;;;;;;;;;;;;;;18.55;56.63;97968.59;5093207;28;1914;-76
2023/07/02 13:05:45;;;;;;;;;;;;;;;18.54;56.89;97977.91;5093876;28;1003;-78
2023/07/02 13:08:36;;;;;;;;;;;;;;;18.53;56.71;97978.22;5093779;28;1188;-76
2023/07/02 13:11:29;;;;;;;;;;;;;;;18.53;56.79;97968.16;5087793;28;929;-77
2023/07/02 13:14:21;;;;;;;;;;;;;;;18.52;57.11;97976.66;5093516;28;1084;-77
2023/07/02 13:17:13;;;;;;;;;;;;;;;18.52;56.96;97974.72;5093838;28;954;-78
2023/07/02 13:20:05;;;;;;;;;;;;;;;18.52;57.05;97974.72;5093571;28;1215;-77
2023/07/02 13:22:58;;;;;;;;;;;;;;;18.52;56.97;97969.25;5093896;28;1945;-76
2023/07/02 13:25:50;;;;;;;;;;;;;;;18.52;57.12;97977.44;5093882;28;1183;-76
2023/07/02 13:28:42;;;;;;;;;;;;;;;18.52;56.93;97982.88;5093939;28;1195;-77
